Flight Track Log - Related Links

Times and Time Zones

All times are in EDT time to prevent confusion due to time zone crossing. See the EJA831 flight status page for this flight to view local times or setup timezone preferences in your user account.

Time Position Orientation Groundspeed Altitude Reporting Facility
EDT Latitude Longitude Course Direction KTS MPH feet Rate Location/Type
Wed 05:27:45 PM 41.1836 -70.1839 237° Southwest 242 278 6,400  Level Boston Center
Wed 05:28:45 PM 41.2144 -70.2683 296° West 224 258 9,900 2,600 Climbing Boston Center
Wed 05:29:45 PM 41.2514 -70.3417 304° West 229 264 11,600 2,200 Climbing Boston Center
Wed 05:30:45 PM 41.3117 -70.4586 304° West 294 338 14,300 2,200 Climbing Boston Center
Wed 05:31:45 PM 41.3719 -70.5703 306° West 333 383 16,000 850 Climbing Boston Center
Wed 05:32:00 PM 41.3724 -70.6602 256° West  Level FlightAware Approximate
Wed 05:32:45 PM 41.3778 -70.6722 274° West 310 357 16,000  Level Boston Center
Wed 05:33:45 PM 41.3525 -70.7947 255° West 303 349 16,000  Level Boston Center
Wed 05:34:45 PM 41.3289 -70.8919 252° West 309 356 16,000 -350 Level Boston Center
Wed 05:35:45 PM 41.3014 -71.0144 253° West 319 367 15,300 -1,138 Descending Boston Center
Wed 05:36:41 PM 41.2736 -71.1172 250° West 309 356 13,800 -1,650 Descending Boston Center
Wed 05:37:45 PM 41.2414 -71.2283 249° West 319 367 12,000 -1,548 Descending Boston Center
Wed 05:38:45 PM 41.1881 -71.2956 223° Southwest 303 349 10,600 -1,000 Descending Boston Center
Wed 05:39:45 PM 41.1406 -71.3597 226° Southwest 308 354 10,000 -300 Descending Boston Center
Wed 05:40:45 PM 41.0664 -71.4517 223° Southwest 313 360 10,000  Level Boston Center
Wed 05:41:45 PM 41.0044 -71.5269 223° Southwest 313 360 10,000 -50 Level Boston Center
Wed 05:42:45 PM 40.9783 -71.6264 251° West 291 335 9,900 -50 Descending Boston Center
Wed 05:43:45 PM 40.9686 -71.7364 263° West 300 345 9,900 65 Level Boston Center
Wed 05:44:18 PM 40.9647 -71.8133 266° West 300 345 10,000  Climbing Boston Center
Wed 05:45:45 PM 40.9508 -71.9536 263° West 300 345 9,900 -41 Descending Boston Center
Wed 05:46:45 PM 40.9367 -72.0636 260° West 300 345 9,900 -950 Level Boston Center
Wed 05:47:45 PM 40.9203 -72.1489 256° West 278 320 8,000 -2,050 Descending Boston Center
Wed 05:48:45 PM 40.9039 -72.2369 256° West 258 297 5,800 -1,950 Descending Boston Center
Wed 05:49:45 PM 40.8831 -72.3303 254° West 258 297 4,100 -900 Descending Boston Center
Wed 05:50:45 PM 40.8644 -72.4208 255° West 258 297 4,000 -50 Descending Boston Center
Wed 05:51:45 PM 40.8458 -72.5114 255° West 258 297 4,000  Level Boston Center
Wed 05:52:57 PM 40.8269 -72.6019 255° West 258 297 4,000  Level Boston Center
Wed 05:53:57 PM 40.8058 -72.7253 257° West 264 304 4,000 45 Level Boston Center
Wed 05:55:09 PM 40.7889 -72.8128 256° West 257 296 4,100 -409 Climbing Boston Center
Wed 05:56:09 PM 40.7614 -72.9197 251° West 268 308 3,100 -1,100 Descending Boston Center
Wed 05:57:09 PM 40.7464 -72.9989 256° West 240 276 1,900 -950 Descending Boston Center
Wed 05:58:09 PM 40.7564 -73.0564 283° West 187 215 1,200 -800 Descending Boston Center
Wed 05:59:09 PM 40.7833 -73.0869 319° Northwest 147 169 300 -500 Descending Boston Center
Wed 06:00:09 PM 40.7978 -73.1336 292° West 141 162 200 5,350 Descending Boston Center
Wed 06:01:09 PM 40.8119 -73.1806 292° West 141 162 11,000 5,400 Climbing Boston Center
Wed 06:02:09 PM 40.8283 -73.2300 294° West 141 162 11,000  Level Boston Center

Login

Don't have an account? Register now (free) for customized features, flight alerts, and more!